createdAt,value
2023-02-11T00:01:16.593Z,102837.78
2023-02-11T00:03:44.035Z,102844.69
2023-02-11T00:06:11.875Z,102840.28
2023-02-11T00:08:40.077Z,102849.75
2023-02-11T00:11:07.823Z,102843.91
2023-02-11T00:13:35.160Z,102844.75
2023-02-11T00:16:07.598Z,102850.00
2023-02-11T00:18:36.423Z,102846.88
2023-02-11T00:21:09.656Z,102842.03
2023-02-11T00:23:37.196Z,102842.66
2023-02-11T00:26:11.328Z,102822.41
2023-02-11T00:28:40.512Z,102838.81
2023-02-11T00:31:12.272Z,102833.63
2023-02-11T00:33:39.707Z,102830.06
2023-02-11T00:36:09.846Z,102822.97
2023-02-11T00:38:37.321Z,102837.41
2023-02-11T00:41:05.039Z,102839.16
2023-02-11T00:43:32.394Z,102825.41
2023-02-11T00:45:59.849Z,102821.47
2023-02-11T00:48:27.300Z,102827.00
2023-02-11T00:50:54.711Z,102816.97
2023-02-11T00:53:22.116Z,102823.72
2023-02-11T00:55:49.682Z,102826.28
2023-02-11T00:58:17.270Z,102811.00
2023-02-11T01:00:44.822Z,102834.91
2023-02-11T01:03:13.414Z,102826.28
2023-02-11T01:05:40.827Z,102827.56
2023-02-11T01:08:10.348Z,102821.88
2023-02-11T01:10:37.862Z,102813.19
2023-02-11T01:13:06.547Z,102832.31
2023-02-11T01:15:33.996Z,102817.66
2023-02-11T01:18:01.463Z,102808.38
2023-02-11T01:20:29.671Z,102822.38
2023-02-11T01:22:57.453Z,102822.44
2023-02-11T01:25:24.834Z,102810.22
2023-02-11T01:30:53.138Z,102814.38
2023-02-11T01:33:20.905Z,102811.00
2023-02-11T01:35:48.470Z,102817.31
2023-02-11T01:38:25.017Z,102816.00
2023-02-11T01:41:02.625Z,102825.03
2023-02-11T01:43:36.802Z,102822.81
2023-02-11T01:46:28.294Z,102815.16
2023-02-11T01:49:08.481Z,102810.94
2023-02-11T01:51:45.100Z,102806.88
2023-02-11T01:54:35.498Z,102800.31
2023-02-11T01:57:22.912Z,102801.59
2023-02-11T02:00:01.309Z,102807.94
2023-02-11T02:02:48.924Z,102797.53
2023-02-11T02:05:23.551Z,102793.78
2023-02-11T02:08:00.001Z,102797.69
2023-02-11T02:10:31.346Z,102805.13
2023-02-11T02:12:59.266Z,102799.50
2023-02-11T02:15:36.407Z,102789.47
2023-02-11T02:18:19.901Z,102807.06
2023-02-11T02:20:56.369Z,102809.22
2023-02-11T02:23:35.535Z,102802.50
2023-02-11T02:26:24.755Z,102812.47
2023-02-11T02:29:17.252Z,102808.00
2023-02-11T02:31:50.601Z,102804.09
2023-02-11T02:34:42.111Z,102791.97
2023-02-11T02:37:18.290Z,102804.00
2023-02-11T02:39:48.869Z,102799.19
2023-02-11T02:42:18.494Z,102798.53
2023-02-11T02:44:53.288Z,102782.75
2023-02-11T02:47:39.447Z,102775.63
2023-02-11T02:50:09.077Z,102771.00
2023-02-11T02:52:53.071Z,102779.25
2023-02-11T02:55:51.657Z,102784.41
2023-02-11T02:58:34.960Z,102756.63
2023-02-11T03:01:18.899Z,102761.38
2023-02-11T03:04:14.549Z,102762.59
2023-02-11T03:07:00.704Z,102762.88
2023-02-11T03:09:49.602Z,102762.44
2023-02-11T03:12:17.681Z,102748.81
2023-02-11T03:14:46.675Z,102747.28
2023-02-11T03:17:16.225Z,102759.25
2023-02-11T03:19:46.454Z,102752.72
2023-02-11T03:22:22.043Z,102758.28
2023-02-11T03:24:49.772Z,102746.66
2023-02-11T03:27:33.004Z,102755.22
2023-02-11T03:30:16.643Z,102746.22
2023-02-11T03:32:52.312Z,102755.50
2023-02-11T03:35:43.682Z,102749.63
2023-02-11T03:38:23.605Z,102743.53
2023-02-11T03:40:51.968Z,102732.59
2023-02-11T03:43:33.574Z,102744.34
2023-02-11T03:46:02.261Z,102745.03
2023-02-11T03:48:37.994Z,102743.81
2023-02-11T03:51:09.748Z,102730.13
2023-02-11T03:53:41.252Z,102748.88
2023-02-11T03:56:11.133Z,102743.34
2023-02-11T03:58:38.709Z,102739.78
2023-02-11T04:01:08.961Z,102720.13
2023-02-11T04:03:36.526Z,102737.28
2023-02-11T04:06:04.188Z,102735.25
2023-02-11T04:08:32.933Z,102744.09
2023-02-11T04:11:00.304Z,102738.84
2023-02-11T04:13:27.767Z,102719.34
2023-02-11T04:15:55.146Z,102726.09
2023-02-11T04:18:22.623Z,102720.75
2023-02-11T04:20:51.052Z,102730.25
2023-02-11T04:23:18.432Z,102720.78
2023-02-11T04:25:45.920Z,102716.44
2023-02-11T04:28:14.189Z,102713.31
2023-02-11T04:30:41.537Z,102719.56
2023-02-11T04:33:08.912Z,102718.91
2023-02-11T04:35:36.327Z,102706.50
2023-02-11T04:38:03.679Z,102712.09
2023-02-11T04:40:31.217Z,102708.19
2023-02-11T04:42:58.631Z,102702.16
2023-02-11T04:45:26.043Z,102702.28
2023-02-11T04:47:53.483Z,102698.53
2023-02-11T04:50:20.952Z,102715.59
2023-02-11T04:52:48.427Z,102720.38
2023-02-11T04:55:15.887Z,102706.06
2023-02-11T04:57:43.257Z,102693.75
2023-02-11T05:00:11.099Z,102694.56
2023-02-11T05:02:38.558Z,102712.53
2023-02-11T05:05:06.085Z,102709.44
2023-02-11T05:07:33.702Z,102707.13
2023-02-11T05:10:01.115Z,102724.00
2023-02-11T05:12:28.520Z,102709.94
2023-02-11T05:14:55.907Z,102712.91
2023-02-11T05:17:23.265Z,102705.69
2023-02-11T05:19:50.711Z,102700.81
2023-02-11T05:22:18.177Z,102690.13
2023-02-11T05:24:45.611Z,102706.31
2023-02-11T05:27:13.074Z,102690.97
2023-02-11T05:29:40.448Z,102704.78
2023-02-11T05:32:09.065Z,102701.34
2023-02-11T05:34:36.716Z,102716.50
2023-02-11T05:37:04.086Z,102709.63
2023-02-11T05:39:31.454Z,102688.63
2023-02-11T05:41:58.800Z,102700.25
2023-02-11T05:44:26.084Z,102711.13
2023-02-11T05:46:53.359Z,102710.31
2023-02-11T05:49:20.689Z,102705.03
2023-02-11T05:51:48.594Z,102706.94
2023-02-11T05:54:16.778Z,102697.97
2023-02-11T05:56:45.002Z,102696.91
2023-02-11T05:59:14.622Z,102698.00
2023-02-11T06:01:42.024Z,102693.13
2023-02-11T06:04:09.493Z,102684.53
2023-02-11T06:06:36.880Z,102689.66
2023-02-11T06:09:04.294Z,102688.00
2023-02-11T06:11:31.656Z,102678.66
2023-02-11T06:13:58.996Z,102686.97
2023-02-11T06:16:26.403Z,102684.00
2023-02-11T06:18:53.758Z,102693.63
2023-02-11T06:21:21.116Z,102690.38
2023-02-11T06:23:49.209Z,102675.66
2023-02-11T06:26:19.624Z,102680.06
2023-02-11T06:28:47.068Z,102684.44
2023-02-11T06:31:15.251Z,102692.94
2023-02-11T06:33:42.622Z,102682.16
2023-02-11T06:36:17.630Z,102671.28
2023-02-11T06:38:46.002Z,102676.81
2023-02-11T06:41:15.790Z,102676.63
2023-02-11T06:43:43.687Z,102692.16
2023-02-11T06:46:11.055Z,102688.22
2023-02-11T06:48:38.654Z,102684.56
2023-02-11T06:51:12.096Z,102687.59
2023-02-11T06:53:42.212Z,102686.75
2023-02-11T06:56:12.216Z,102692.38
2023-02-11T06:58:39.712Z,102694.06
2023-02-11T07:01:09.454Z,102697.78
2023-02-11T07:03:38.394Z,102702.66
2023-02-11T07:06:07.496Z,102692.91
2023-02-11T07:08:36.336Z,102689.19
2023-02-11T07:11:27.988Z,102686.72
2023-02-11T07:13:56.824Z,102690.41
2023-02-11T07:16:24.137Z,102685.38
2023-02-11T07:18:51.592Z,102684.28
2023-02-11T07:21:21.003Z,102692.72
2023-02-11T07:23:48.873Z,102698.16
2023-02-11T07:26:19.146Z,102697.56
2023-02-11T07:28:48.855Z,102704.41
2023-02-11T07:31:20.102Z,102707.66
2023-02-11T07:33:47.622Z,102705.81
2023-02-11T07:36:16.640Z,102712.72
2023-02-11T07:38:44.587Z,102694.81
2023-02-11T07:41:17.645Z,102713.38
2023-02-11T07:43:45.580Z,102701.09
2023-02-11T07:46:19.283Z,102714.09
2023-02-11T07:48:47.355Z,102709.44
2023-02-11T07:51:17.679Z,102706.50
2023-02-11T07:53:46.020Z,102706.50
2023-02-11T07:56:15.278Z,102710.88
2023-02-11T07:58:43.631Z,102703.06
2023-02-11T08:01:17.540Z,102700.66
2023-02-11T08:03:45.556Z,102711.00
2023-02-11T08:06:16.500Z,102703.69
2023-02-11T08:08:44.151Z,102700.06
2023-02-11T08:11:14.801Z,102713.28
2023-02-11T08:13:42.492Z,102704.66
2023-02-11T08:16:16.836Z,102714.34
2023-02-11T08:18:44.236Z,102701.25
2023-02-11T08:21:11.921Z,102725.66
2023-02-11T08:23:40.962Z,102697.19
2023-02-11T08:26:11.367Z,102714.13
2023-02-11T08:29:15.921Z,102711.13
2023-02-11T08:31:45.950Z,102698.06
2023-02-11T08:34:14.486Z,102696.19
2023-02-11T08:36:43.066Z,102689.75
2023-02-11T08:39:20.741Z,102692.66
2023-02-11T08:41:50.705Z,102700.66
2023-02-11T08:44:21.708Z,102692.31
2023-02-11T08:46:50.111Z,102698.00
2023-02-11T08:49:17.854Z,102701.16
2023-02-11T08:51:46.271Z,102696.41
2023-02-11T08:54:14.343Z,102700.06
2023-02-11T08:56:42.422Z,102704.97
2023-02-11T08:59:13.872Z,102698.72
2023-02-11T09:01:41.576Z,102709.59
2023-02-11T09:04:10.498Z,102725.28
2023-02-11T09:06:37.842Z,102723.78
2023-02-11T09:09:05.636Z,102724.28
2023-02-11T09:11:35.664Z,102734.81
2023-02-11T09:14:04.563Z,102725.63
2023-02-11T09:16:34.776Z,102734.38
2023-02-11T09:19:04.017Z,102724.13
2023-02-11T09:21:31.467Z,102721.22
2023-02-11T09:23:58.827Z,102729.38
2023-02-11T09:26:29.346Z,102727.97
2023-02-11T09:29:07.732Z,102724.81
2023-02-11T09:34:22.798Z,102717.28
2023-02-11T09:36:50.316Z,102710.69
2023-02-11T09:39:20.515Z,102715.75
2023-02-11T09:41:55.617Z,102720.66
2023-02-11T09:44:30.090Z,102708.97
2023-02-11T09:47:01.008Z,102716.53
2023-02-11T09:49:39.561Z,102709.03
2023-02-11T09:52:30.810Z,102731.50
2023-02-11T09:55:04.287Z,102727.16
2023-02-11T09:57:35.044Z,102732.38
2023-02-11T10:00:17.150Z,102729.13
2023-02-11T10:03:04.512Z,102733.19
2023-02-11T10:05:48.887Z,102737.41
2023-02-11T10:08:42.713Z,102717.22
2023-02-11T10:11:32.136Z,102729.72
2023-02-11T10:14:36.980Z,102725.03
2023-02-11T10:17:19.188Z,102728.56
2023-02-11T10:20:03.230Z,102715.28
2023-02-11T10:22:46.948Z,102726.63
2023-02-11T10:25:20.102Z,102731.97
2023-02-11T10:27:48.410Z,102723.94
2023-02-11T10:30:22.122Z,102723.41
2023-02-11T10:32:56.523Z,102708.63
2023-02-11T10:35:24.821Z,102717.78
2023-02-11T10:37:52.479Z,102714.03
2023-02-11T10:40:23.885Z,102699.13
2023-02-11T10:42:55.674Z,102720.56
2023-02-11T10:45:33.284Z,102710.53
2023-02-11T10:48:04.507Z,102725.72
2023-02-11T10:50:35.040Z,102717.66
2023-02-11T10:53:13.627Z,102716.53
2023-02-11T10:55:50.414Z,102712.41
2023-02-11T10:58:28.099Z,102707.19
2023-02-11T11:00:57.413Z,102702.03
2023-02-11T11:03:27.475Z,102692.16
2023-02-11T11:06:02.009Z,102676.38
2023-02-11T11:08:50.898Z,102685.47
2023-02-11T11:11:23.925Z,102675.16
2023-02-11T11:13:54.235Z,102683.19
2023-02-11T11:16:36.306Z,102673.22
2023-02-11T11:19:06.612Z,102661.91
2023-02-11T11:21:42.761Z,102668.25
2023-02-11T11:24:21.142Z,102663.88
2023-02-11T11:26:55.025Z,102644.00
2023-02-11T11:29:34.434Z,102635.31
2023-02-11T11:32:24.067Z,102630.50
2023-02-11T11:34:55.642Z,102630.88
2023-02-11T11:37:27.161Z,102630.84
2023-02-11T11:40:03.577Z,102632.81
2023-02-11T11:42:33.463Z,102634.78
2023-02-11T11:45:04.708Z,102623.13
2023-02-11T11:47:56.359Z,102624.25
2023-02-11T11:50:43.589Z,102627.88
2023-02-11T11:53:31.891Z,102623.69
2023-02-11T11:56:23.111Z,102614.63
2023-02-11T11:58:50.962Z,102621.53
2023-02-11T12:01:36.588Z,102617.78
2023-02-11T12:04:25.719Z,102615.16
2023-02-11T12:07:01.840Z,102619.63
2023-02-11T12:09:48.296Z,102615.56
2023-02-11T12:12:34.474Z,102609.56
2023-02-11T12:15:19.308Z,102604.47
2023-02-11T12:17:59.915Z,102593.97
2023-02-11T12:20:27.406Z,102587.84
2023-02-11T12:23:37.109Z,102585.13
2023-02-11T12:26:19.540Z,102586.59
2023-02-11T12:29:45.346Z,102574.47
2023-02-11T12:32:33.929Z,102577.81
2023-02-11T12:35:16.441Z,102570.56
2023-02-11T12:38:21.824Z,102570.72
2023-02-11T12:41:11.296Z,102564.63
2023-02-11T12:43:41.017Z,102568.94
2023-02-11T12:46:19.251Z,102564.53
2023-02-11T12:49:14.333Z,102562.00
2023-02-11T12:52:00.023Z,102556.06
2023-02-11T12:54:35.569Z,102550.91
2023-02-11T12:57:18.150Z,102553.81
2023-02-11T13:00:12.708Z,102538.06
2023-02-11T13:02:45.955Z,102539.09
2023-02-11T13:05:29.510Z,102530.53
2023-02-11T13:08:10.866Z,102529.00
2023-02-11T13:10:41.585Z,102524.84
2023-02-11T13:13:19.121Z,102518.03
2023-02-11T13:16:09.783Z,102522.41
2023-02-11T13:18:52.590Z,102517.75
2023-02-11T13:21:31.319Z,102530.19
2023-02-11T13:24:17.394Z,102520.34
2023-02-11T13:27:12.475Z,102516.75
2023-02-11T13:30:20.036Z,102506.25
2023-02-11T13:32:54.782Z,102516.84
2023-02-11T13:35:34.332Z,102508.91
2023-02-11T13:38:05.104Z,102501.91
2023-02-11T13:40:39.705Z,102498.47
2023-02-11T13:43:21.143Z,102500.25
2023-02-11T13:45:51.078Z,102494.13
2023-02-11T13:48:31.083Z,102497.81
2023-02-11T13:51:02.064Z,102496.72
2023-02-11T13:53:29.910Z,102493.13
2023-02-11T13:56:11.349Z,102484.34
2023-02-11T13:58:49.890Z,102487.84
2023-02-11T14:01:44.161Z,102479.22
2023-02-11T14:04:44.404Z,102474.91
2023-02-11T14:07:42.349Z,102477.63
2023-02-11T14:10:38.883Z,102476.72
2023-02-11T14:13:22.899Z,102478.41
2023-02-11T14:16:06.087Z,102473.91
2023-02-11T14:18:45.780Z,102472.22
2023-02-11T14:21:17.507Z,102469.66
2023-02-11T14:23:45.455Z,102470.63
2023-02-11T14:26:21.721Z,102466.19
2023-02-11T14:28:54.995Z,102452.09
2023-02-11T14:31:28.983Z,102461.84
2023-02-11T14:33:56.466Z,102462.72
2023-02-11T14:36:46.269Z,102455.63
2023-02-11T14:39:16.425Z,102447.78
2023-02-11T14:41:48.169Z,102446.91
2023-02-11T14:44:17.827Z,102449.50
2023-02-11T14:46:47.486Z,102450.38
2023-02-11T14:49:25.438Z,102447.75
2023-02-11T14:51:56.677Z,102440.59
2023-02-11T14:54:27.447Z,102428.19
2023-02-11T14:57:14.151Z,102432.53
2023-02-11T15:00:02.378Z,102433.44
2023-02-11T15:02:37.161Z,102436.16
2023-02-11T15:05:34.768Z,102423.66
2023-02-11T15:08:05.079Z,102424.50
2023-02-11T15:10:41.462Z,102421.78
2023-02-11T15:13:16.431Z,102421.78
2023-02-11T15:15:46.435Z,102430.75
2023-02-11T15:18:22.761Z,102433.31
2023-02-11T15:20:52.099Z,102431.50
2023-02-11T15:23:25.071Z,102426.09
2023-02-11T15:25:53.025Z,102417.16
2023-02-11T15:28:38.723Z,102402.28
2023-02-11T15:31:16.399Z,102410.25
2023-02-11T15:33:43.873Z,102409.22
2023-02-11T15:36:13.607Z,102397.84
2023-02-11T15:38:41.108Z,102412.91
2023-02-11T15:41:29.064Z,102405.63
2023-02-11T15:43:56.384Z,102401.31
2023-02-11T15:46:24.336Z,102394.22
2023-02-11T15:48:53.954Z,102407.50
2023-02-11T15:51:32.869Z,102408.34
2023-02-11T15:54:05.864Z,102405.75
2023-02-11T15:56:43.570Z,102403.09
2023-02-11T15:59:27.446Z,102410.16
2023-02-11T16:01:55.532Z,102401.31
2023-02-11T16:04:25.930Z,102402.13
2023-02-11T16:06:55.403Z,102403.78
2023-02-11T16:09:33.710Z,102403.78
2023-02-11T16:12:22.607Z,102402.81
2023-02-11T16:14:50.008Z,102396.59
2023-02-11T16:17:28.851Z,102397.38
2023-02-11T16:19:56.335Z,102391.09
2023-02-11T16:22:30.293Z,102404.28
2023-02-11T16:24:59.752Z,102392.69
2023-02-11T16:27:34.421Z,102388.25
2023-02-11T16:30:02.156Z,102394.53
2023-02-11T16:32:30.302Z,102394.41
2023-02-11T16:35:00.829Z,102395.13
2023-02-11T16:37:28.321Z,102402.09
2023-02-11T16:39:57.009Z,102395.84
2023-02-11T16:42:24.779Z,102392.97
2023-02-11T16:44:52.249Z,102399.03
2023-02-11T16:47:24.327Z,102402.47
2023-02-11T16:49:52.424Z,102411.28
2023-02-11T16:52:21.549Z,102405.09
2023-02-11T16:54:49.107Z,102399.69
2023-02-11T16:57:24.956Z,102406.72
2023-02-11T16:59:52.949Z,102414.53
2023-02-11T17:02:25.285Z,102417.09
2023-02-11T17:04:54.712Z,102407.31
2023-02-11T17:07:22.478Z,102408.13
2023-02-11T17:09:50.209Z,102411.56
2023-02-11T17:12:18.022Z,102418.38
2023-02-11T17:14:45.451Z,102412.06
2023-02-11T17:17:13.095Z,102411.16
2023-02-11T17:19:40.409Z,102423.47
2023-02-11T17:22:07.845Z,102428.69
2023-02-11T17:24:35.321Z,102420.75
2023-02-11T17:27:02.769Z,102423.34
2023-02-11T17:29:30.072Z,102427.72
2023-02-11T17:31:57.456Z,102419.66
2023-02-11T17:34:24.881Z,102426.69
2023-02-11T17:36:52.176Z,102426.50
2023-02-11T17:39:21.090Z,102431.75
2023-02-11T17:41:48.727Z,102427.25
2023-02-11T17:44:16.733Z,102433.25
2023-02-11T17:46:44.348Z,102426.25
2023-02-11T17:49:12.186Z,102428.88
2023-02-11T17:51:40.250Z,102433.22
2023-02-11T17:54:12.435Z,102431.22
2023-02-11T17:56:40.456Z,102431.88
2023-02-11T17:59:09.314Z,102425.81
2023-02-11T18:01:40.268Z,102431.94
2023-02-11T18:04:13.575Z,102415.19
2023-02-11T18:06:41.330Z,102429.25
2023-02-11T18:09:09.845Z,102416.03
2023-02-11T18:11:39.344Z,102412.22
2023-02-11T18:14:08.508Z,102416.72
2023-02-11T18:16:39.075Z,102411.25
2023-02-11T18:19:08.063Z,102420.06
2023-02-11T18:21:36.016Z,102414.88
2023-02-11T18:24:06.814Z,102414.78
2023-02-11T18:26:35.666Z,102425.34
2023-02-11T18:29:03.920Z,102428.78
2023-02-11T18:31:31.566Z,102426.88
2023-02-11T18:33:59.013Z,102425.59
2023-02-11T18:36:29.430Z,102416.03
2023-02-11T18:39:01.550Z,102416.13
2023-02-11T18:41:29.820Z,102417.75
2023-02-11T18:43:58.678Z,102423.78
2023-02-11T18:46:26.095Z,102425.50
2023-02-11T18:48:55.994Z,102423.84
2023-02-11T18:51:24.343Z,102418.63
2023-02-11T18:53:52.176Z,102420.31
2023-02-11T18:56:22.810Z,102412.44
2023-02-11T18:58:51.417Z,102412.31
2023-02-11T19:01:24.216Z,102412.22
2023-02-11T19:03:51.949Z,102424.41
2023-02-11T19:06:22.444Z,102430.50
2023-02-11T19:08:53.353Z,102429.50
2023-02-11T19:11:42.185Z,102429.44
2023-02-11T19:14:30.336Z,102436.47
2023-02-11T19:16:59.986Z,102431.16
2023-02-11T19:19:30.550Z,102426.63
2023-02-11T19:21:59.559Z,102423.00
2023-02-11T19:24:27.897Z,102430.09
2023-02-11T19:27:01.020Z,102438.69
2023-02-11T19:29:32.195Z,102437.66
2023-02-11T19:32:10.406Z,102427.16
2023-02-11T19:34:41.326Z,102427.06
2023-02-11T19:37:12.161Z,102426.16
2023-02-11T19:39:40.766Z,102427.94
2023-02-11T19:42:08.878Z,102422.63
2023-02-11T19:44:41.696Z,102425.16
2023-02-11T19:47:10.547Z,102406.31
2023-02-11T19:49:38.239Z,102427.63
2023-02-11T19:52:05.594Z,102428.44
2023-02-11T19:54:44.313Z,102421.41
2023-02-11T19:57:12.219Z,102427.34
2023-02-11T19:59:42.587Z,102413.53
2023-02-11T20:02:12.316Z,102425.13
2023-02-11T20:04:39.896Z,102431.16
2023-02-11T20:07:11.743Z,102416.78
2023-02-11T20:09:40.958Z,102421.56
2023-02-11T20:12:08.952Z,102421.66
2023-02-11T20:14:36.795Z,102423.31
2023-02-11T20:17:04.377Z,102426.94
2023-02-11T20:19:31.994Z,102415.28
2023-02-11T20:21:59.720Z,102426.56
2023-02-11T20:24:33.878Z,102416.66
2023-02-11T20:27:01.780Z,102416.38
2023-02-11T20:29:31.259Z,102409.38
2023-02-11T20:31:58.813Z,102421.50
2023-02-11T20:34:26.235Z,102405.41
2023-02-11T20:36:54.171Z,102406.75
2023-02-11T20:39:23.518Z,102402.78
2023-02-11T20:41:52.412Z,102406.38
2023-02-11T20:44:24.008Z,102406.34
2023-02-11T20:46:53.883Z,102413.97
2023-02-11T20:49:23.961Z,102417.31
2023-02-11T20:51:53.612Z,102416.31
2023-02-11T20:54:23.254Z,102402.00
2023-02-11T20:56:51.429Z,102411.53
2023-02-11T20:59:19.297Z,102406.94
2023-02-11T21:01:50.218Z,102395.69
2023-02-11T21:04:21.220Z,102413.88
2023-02-11T21:06:52.279Z,102425.47
2023-02-11T21:09:22.833Z,102404.13
2023-02-11T21:11:51.709Z,102409.41
2023-02-11T21:14:20.846Z,102395.84
2023-02-11T21:16:49.200Z,102412.59
2023-02-11T21:19:17.885Z,102407.34
2023-02-11T21:21:45.864Z,102413.91
2023-02-11T21:24:13.941Z,102408.53
2023-02-11T21:26:41.716Z,102397.81
2023-02-11T21:29:09.548Z,102410.06
2023-02-11T21:31:45.769Z,102412.66
2023-02-11T21:34:13.211Z,102424.56
2023-02-11T21:36:45.587Z,102403.84
2023-02-11T21:39:20.436Z,102409.09
2023-02-11T21:41:53.366Z,102410.69
2023-02-11T21:44:21.708Z,102392.09
2023-02-11T21:46:55.013Z,102390.25
2023-02-11T21:49:22.779Z,102390.25
2023-02-11T21:51:52.315Z,102398.31
2023-02-11T21:54:25.897Z,102406.97
2023-02-11T21:57:00.846Z,102403.31
2023-02-11T21:59:42.683Z,102391.81
2023-02-11T22:02:15.558Z,102389.47
2023-02-11T22:04:46.703Z,102413.19
2023-02-11T22:07:17.118Z,102406.94
2023-02-11T22:09:48.734Z,102421.03
2023-02-11T22:12:18.365Z,102419.19
2023-02-11T22:14:50.981Z,102404.03
2023-02-11T22:17:25.382Z,102410.44
2023-02-11T22:19:58.482Z,102417.47
2023-02-11T22:22:33.022Z,102415.50
2023-02-11T22:25:04.224Z,102386.94
2023-02-11T22:27:31.722Z,102409.09
2023-02-11T22:30:09.878Z,102400.19
2023-02-11T22:32:42.650Z,102414.31
2023-02-11T22:35:10.704Z,102408.00
2023-02-11T22:37:39.373Z,102393.84
2023-02-11T22:40:07.634Z,102411.56
2023-02-11T22:42:35.506Z,102406.50
2023-02-11T22:45:03.223Z,102405.66
2023-02-11T22:47:31.018Z,102404.94
2023-02-11T22:49:59.315Z,102400.56
2023-02-11T22:52:28.433Z,102412.00
2023-02-11T22:54:56.169Z,102405.56
2023-02-11T22:57:23.660Z,102403.47
2023-02-11T22:59:51.141Z,102397.19
2023-02-11T23:02:18.664Z,102397.47
2023-02-11T23:04:49.617Z,102393.91
2023-02-11T23:07:17.519Z,102395.84
2023-02-11T23:09:45.354Z,102388.50
2023-02-11T23:12:13.563Z,102379.75
2023-02-11T23:14:42.686Z,102388.25
2023-02-11T23:17:21.788Z,102390.72
2023-02-11T23:19:49.149Z,102409.81
2023-02-11T23:22:16.607Z,102402.25
2023-02-11T23:24:44.791Z,102402.75
2023-02-11T23:27:12.439Z,102412.81
2023-02-11T23:29:40.764Z,102405.81
2023-02-11T23:32:11.138Z,102412.72
2023-02-11T23:34:38.773Z,102401.09
2023-02-11T23:37:06.604Z,102407.25
2023-02-11T23:39:34.140Z,102387.47
2023-02-11T23:42:01.998Z,102412.94
2023-02-11T23:44:30.194Z,102414.81
2023-02-11T23:46:58.425Z,102398.16
2023-02-11T23:49:44.486Z,102382.69
2023-02-11T23:52:12.145Z,102390.59
2023-02-11T23:54:39.792Z,102390.34
2023-02-11T23:57:07.897Z,102398.75
2023-02-11T23:59:35.620Z,102391.72
